CheckWX is a tool to help pilots better visualize weather data.  It is not intended as a substitute for an official pre-flight weather briefing.

12:59:49 UTC

KOWD METAR
Norwood Memorial Airport
Norwood, Massachusetts, USA
Current

1 hour ago

KOWD 181153Z 03003KT 2 1/2SM -SN FEW016 SCT028 OVC038 M01/M04 A2987 RMK AO2 SLP116 P0000 60000 T10111039 11011 21011 58020
Observed
Feb-18 @ 11:53 UTC
Wind
  • 030° at 3 KTS
Visibility
2 1/2 SM
Flight Rules
IFR
Conditions
Light Snow
Cloud Levels
  • Few at 1,600' AGL
  • Scattered at 2,800' AGL
  • Overcast at 3,800' AGL
Temperature
-1°C / 30°F
Dewpoint
-4°C / 25°F
Humidity
80%
Altimeter
29.87" Hg
Pressure
1011.6 hPa
Current Rain
0.01"
Previous

1 hour ago

KOWD 181131Z 00000KT 2SM -SN OVC035 M01/M04 A2987 RMK AO2 P0000 T10111039
Observed
Feb-18 @ 11:31 UTC
Visibility
2 SM
Flight Rules
IFR
Conditions
Light Snow
Cloud Levels
  • Overcast at 3,500' AGL
Temperature
-1°C / 30°F
Dewpoint
-4°C / 25°F
Humidity
80%
Altimeter
29.87" Hg
Pressure
1011.52 hPa
Current Rain
0.01"
Previous

2 hours ago

KOWD 181120Z 00000KT 3SM -SN BKN031 OVC042 M01/M04 A2987 RMK AO2 P0000 T10111039
Observed
Feb-18 @ 11:20 UTC
Visibility
3 SM
Flight Rules
MVFR
Conditions
Light Snow
Cloud Levels
  • Broken at 3,100' AGL
  • Overcast at 4,200' AGL
Temperature
-1°C / 30°F
Dewpoint
-4°C / 25°F
Humidity
80%
Altimeter
29.87" Hg
Pressure
1011.52 hPa
Current Rain
0.01"